Time;durP1;ratioP1;P1;durP2;ratioP2;P2;SDS_P1;SDS_P2;PMS_P1;PMS_P2;Temp;Humidity;BMP_temperature;BMP_pressure;BME280_temperature;BME280_humidity;BME280_pressure;Samples;Min_cycle;Max_cycle;Signal;HPM_P1;HPM_P2
2022/07/03 16:49:32;;;;;;;2.17;1.40;;;24.70;74.60;;;;;;5051636;27;20563;-83
2022/07/03 16:52:04;;;;;;;1.38;1.20;;;24.50;76.40;;;;;;4978838;28;20786;-83
2022/07/03 16:54:32;;;;;;;2.25;1.60;;;24.50;77.10;;;;;;5032949;28;20207;-83
2022/07/03 16:57:00;;;;;;;1.83;1.25;;;24.50;77.10;;;;;;5035712;28;20190;-84
2022/07/03 16:59:33;;;;;;;1.80;1.42;;;24.30;77.80;;;;;;5035938;28;20197;-83
2022/07/03 17:02:01;;;;;;;2.50;1.30;;;24.30;78.00;;;;;;5033531;28;20218;-84
2022/07/03 17:04:32;;;;;;;1.38;1.27;;;24.40;78.50;;;;;;5056104;28;20560;-82
2022/07/03 17:06:59;;;;;;;4.32;1.50;;;24.50;78.40;;;;;;5033727;28;20187;-83
2022/07/03 17:09:27;;;;;;;2.10;1.40;;;24.70;78.40;;;;;;5041821;28;20209;-83
2022/07/03 17:11:55;;;;;;;1.42;1.33;;;24.60;77.80;;;;;;5042531;28;20207;-83
2022/07/03 17:14:22;;;;;;;2.33;1.50;;;24.30;77.20;;;;;;5038391;28;20257;-83
2022/07/03 17:16:53;;;;;;;1.60;1.42;;;24.10;78.00;;;;;;5039035;28;20199;-82
2022/07/03 17:19:23;;;;;;;1.63;1.15;;;24.00;78.30;;;;;;5032039;28;20223;-82
2022/07/03 17:21:55;;;;;;;1.35;0.88;;;23.90;79.20;;;;;;5040331;28;20669;-81
2022/07/03 17:24:23;;;;;;;1.70;0.98;;;23.80;76.60;;;;;;5038906;28;20214;-82
2022/07/03 17:26:52;;;;;;;1.10;1.00;;;23.90;76.50;;;;;;5044076;28;20553;-81
2022/07/03 17:29:21;;;;;;;1.25;0.88;;;23.80;74.80;;;;;;5038675;28;20202;-81
2022/07/03 17:31:50;;;;;;;3.00;1.20;;;23.80;74.40;;;;;;5039812;28;20206;-82
2022/07/03 17:34:22;;;;;;;1.90;0.88;;;23.90;73.50;;;;;;5040349;28;20693;-82
2022/07/03 17:36:52;;;;;;;1.80;1.00;;;23.70;72.50;;;;;;5047994;28;20194;-82
2022/07/03 17:39:21;;;;;;;1.88;0.80;;;23.70;73.00;;;;;;5041006;28;20218;-82
2022/07/03 17:41:50;;;;;;;1.42;1.10;;;23.80;71.80;;;;;;5039067;28;20210;-83
2022/07/03 17:44:18;;;;;;;2.42;1.10;;;24.10;71.00;;;;;;5034047;28;20207;-82
2022/07/03 17:46:48;;;;;;;3.10;0.80;;;24.50;69.90;;;;;;5048331;28;20214;-82
2022/07/03 17:49:20;;;;;;;1.27;0.98;;;24.50;68.50;;;;;;5041952;28;20420;-82
2022/07/03 17:51:50;;;;;;;1.08;0.98;;;24.30;69.60;;;;;;5039396;28;21334;-82
2022/07/03 17:54:19;;;;;;;2.38;1.00;;;24.20;71.70;;;;;;5040533;28;20579;-82
2022/07/03 17:56:47;;;;;;;2.83;0.90;;;23.90;73.70;;;;;;5035252;28;20198;-82
2022/07/03 17:59:16;;;;;;;3.78;1.30;;;23.80;75.40;;;;;;5031870;28;20234;-83
2022/07/03 18:01:43;;;;;;;1.88;1.30;;;23.80;77.20;;;;;;5026377;28;20292;-83
2022/07/03 18:04:13;;;;;;;3.10;1.85;;;23.90;78.90;;;;;;5024767;28;20191;-83
2022/07/03 18:06:44;;;;;;;2.08;1.70;;;23.60;80.90;;;;;;5044817;28;20203;-83
2022/07/03 18:09:24;;;;;;;2.90;2.20;;;23.30;84.40;;;;;;5027108;28;20694;-83
2022/07/03 18:11:57;;;;;;;2.53;1.73;;;23.10;86.80;;;;;;5045401;28;20226;-79
2022/07/03 18:14:34;;;;;;;2.05;1.70;;;23.00;89.10;;;;;;5026268;28;20611;-82
2022/07/03 18:17:02;;;;;;;2.42;1.90;;;22.90;90.30;;;;;;5017996;28;20199;-82
2022/07/03 18:19:31;;;;;;;2.85;2.10;;;23.00;90.40;;;;;;5024859;28;20216;-83
2022/07/03 18:22:01;;;;;;;1.63;1.52;;;23.10;90.50;;;;;;5022203;28;20204;-83
2022/07/03 18:24:37;;;;;;;4.22;2.15;;;23.10;90.50;;;;;;5019765;28;20215;-82
2022/07/03 18:27:08;;;;;;;6.75;2.20;;;22.90;90.60;;;;;;5022770;28;20199;-82
2022/07/03 18:29:38;;;;;;;3.78;1.80;;;22.70;91.00;;;;;;5038545;28;20188;-82
2022/07/03 18:32:07;;;;;;;4.60;1.83;;;22.70;91.30;;;;;;5022677;28;20202;-82
2022/07/03 18:34:36;;;;;;;2.05;1.83;;;22.60;91.30;;;;;;5025372;28;20911;-82
2022/07/03 18:37:12;;;;;;;1.70;1.50;;;22.60;91.50;;;;;;5027246;28;20191;-82
2022/07/03 18:39:41;;;;;;;3.63;1.50;;;22.60;91.80;;;;;;5018641;28;20212;-82
2022/07/03 18:42:10;;;;;;;2.33;1.42;;;22.70;91.40;;;;;;5022529;28;20207;-82
2022/07/03 18:44:39;;;;;;;3.38;1.70;;;22.80;91.00;;;;;;5022309;28;20199;-82
2022/07/03 18:47:06;;;;;;;2.80;1.85;;;23.00;91.00;;;;;;5024615;28;20203;-82
2022/07/03 18:49:34;;;;;;;2.45;1.77;;;23.00;90.50;;;;;;5021881;28;20192;-82
2022/07/03 18:52:05;;;;;;;2.30;1.70;;;23.20;90.30;;;;;;5033732;28;20203;-82
2022/07/03 18:54:44;;;;;;;1.90;1.38;;;23.10;89.10;;;;;;5022155;28;20202;-82
2022/07/03 18:57:18;;;;;;;2.08;1.40;;;23.20;88.20;;;;;;5015479;28;20329;-82
2022/07/03 18:59:52;;;;;;;2.45;1.50;;;23.50;87.00;;;;;;5014253;28;20222;-82
2022/07/03 19:02:22;;;;;;;2.63;1.70;;;23.10;85.60;;;;;;5016757;28;20673;-82
2022/07/03 19:04:51;;;;;;;4.85;1.95;;;23.30;84.90;;;;;;5033927;28;20210;-82
2022/07/03 19:07:27;;;;;;;2.55;1.58;;;23.30;85.10;;;;;;5024431;28;20234;-82
2022/07/03 19:10:03;;;;;;;1.52;1.33;;;23.20;86.30;;;;;;5021540;28;20195;-82
2022/07/03 19:12:37;;;;;;;1.77;1.50;;;22.90;86.90;;;;;;5015415;28;20203;-82
2022/07/03 19:15:09;;;;;;;2.30;1.45;;;22.80;88.50;;;;;;5026391;28;20202;-82
2022/07/03 19:17:36;;;;;;;1.50;1.30;;;22.70;88.60;;;;;;5018431;28;20226;-81
2022/07/03 19:20:08;;;;;;;1.42;1.27;;;22.60;88.70;;;;;;5016974;28;21177;-81
2022/07/03 19:22:36;;;;;;;3.67;1.50;;;22.40;89.50;;;;;;5037810;28;20199;-81
2022/07/03 19:25:04;;;;;;;1.85;1.40;;;22.50;89.60;;;;;;5032707;28;20199;-81
2022/07/03 19:27:32;;;;;;;1.30;1.20;;;22.20;90.00;;;;;;5020926;28;20216;-82
2022/07/03 19:30:00;;;;;;;2.92;1.42;;;22.30;90.10;;;;;;5024371;28;20688;-82
2022/07/03 19:32:28;;;;;;;3.22;1.33;;;22.20;90.30;;;;;;5023942;28;20556;-82
2022/07/03 19:34:56;;;;;;;1.90;1.27;;;21.90;90.70;;;;;;5012696;28;20204;-82
2022/07/03 19:37:23;;;;;;;1.80;1.40;;;22.00;90.60;;;;;;5021439;28;20223;-82
2022/07/03 19:39:50;;;;;;;1.30;1.20;;;21.70;90.80;;;;;;5016661;28;20211;-82
2022/07/03 19:42:18;;;;;;;1.85;1.42;;;21.70;91.00;;;;;;5029485;28;20226;-82
2022/07/03 19:44:47;;;;;;;1.27;1.17;;;21.60;91.00;;;;;;5028546;28;20198;-81
2022/07/03 19:47:15;;;;;;;2.30;1.27;;;21.50;91.40;;;;;;5018031;28;20709;-82
2022/07/03 19:49:42;;;;;;;1.67;1.35;;;21.50;91.50;;;;;;5016754;28;20192;-83
2022/07/03 19:52:10;;;;;;;2.85;1.63;;;21.50;91.60;;;;;;5030998;28;20210;-82
2022/07/03 19:54:37;;;;;;;2.45;1.17;;;21.50;91.50;;;;;;5015191;28;20199;-82
2022/07/03 19:57:06;;;;;;;2.33;1.42;;;21.50;91.30;;;;;;5017190;28;20206;-82
2022/07/03 19:59:33;;;;;;;1.90;1.25;;;21.30;91.50;;;;;;5036821;28;20218;-82
2022/07/03 20:02:02;;;;;;;1.88;1.17;;;21.30;91.30;;;;;;5032073;28;20681;-81
2022/07/03 20:04:30;;;;;;;2.47;1.35;;;21.30;91.30;;;;;;5017201;28;20204;-82
2022/07/03 20:06:58;;;;;;;1.90;1.52;;;21.40;91.20;;;;;;5021195;28;20203;-82
2022/07/03 20:09:25;;;;;;;2.55;1.17;;;21.50;91.20;;;;;;5022033;28;20203;-82
2022/07/03 20:11:53;;;;;;;3.38;1.45;;;21.50;90.80;;;;;;5024398;28;20196;-82
2022/07/03 20:14:23;;;;;;;1.85;1.02;;;21.40;90.90;;;;;;5024358;28;20287;-83
2022/07/03 20:16:51;;;;;;;3.10;1.17;;;21.20;91.20;;;;;;5019502;28;20212;-81
2022/07/03 20:19:20;;;;;;;2.28;1.27;;;21.10;91.60;;;;;;5032082;28;20557;-81
2022/07/03 20:21:48;;;;;;;1.90;1.15;;;21.10;91.80;;;;;;5021246;28;20625;-81
2022/07/03 20:24:35;;;;;;;1.15;0.85;;;21.00;92.00;;;;;;5017906;28;20210;-81
2022/07/03 20:27:04;;;;;;;3.13;1.42;;;21.00;92.00;;;;;;5019911;28;20187;-81
2022/07/03 20:29:35;;;;;;;2.13;0.95;;;21.00;91.60;;;;;;5021122;28;20206;-81
2022/07/03 20:32:03;;;;;;;1.15;1.00;;;21.00;91.40;;;;;;5018795;28;20680;-80
2022/07/03 20:34:35;;;;;;;1.85;0.90;;;20.90;91.40;;;;;;5022384;28;20462;-81
2022/07/03 20:37:04;;;;;;;2.40;1.23;;;20.90;91.40;;;;;;5013465;28;20202;-79
2022/07/03 20:39:33;;;;;;;1.88;0.90;;;20.80;91.70;;;;;;5012565;28;20223;-79
2022/07/03 20:42:00;;;;;;;1.73;1.00;;;20.90;91.60;;;;;;5016724;28;20204;-80
2022/07/03 20:44:28;;;;;;;2.95;1.30;;;20.90;91.60;;;;;;5016738;28;20211;-79
2022/07/03 20:46:56;;;;;;;6.03;1.20;;;20.80;91.60;;;;;;5019464;28;20204;-79
2022/07/03 20:49:23;;;;;;;1.67;0.68;;;20.80;91.50;;;;;;5010219;28;20212;-79
2022/07/03 20:51:52;;;;;;;3.35;1.30;;;20.80;90.90;;;;;;5023103;28;20203;-79
2022/07/03 20:54:20;;;;;;;1.65;0.80;;;20.80;91.00;;;;;;5014394;28;20195;-81
2022/07/03 20:56:48;;;;;;;1.42;1.00;;;20.70;90.70;;;;;;5020304;28;20203;-79
2022/07/03 20:59:16;;;;;;;0.98;0.68;;;20.80;91.00;;;;;;5018745;28;20214;-78
2022/07/03 21:01:43;;;;;;;1.42;1.00;;;20.90;90.40;;;;;;5020787;28;20638;-79
2022/07/03 21:04:11;;;;;;;1.05;0.60;;;20.70;90.30;;;;;;5019525;28;20266;-78
2022/07/03 21:06:40;;;;;;;1.98;1.20;;;20.80;90.50;;;;;;5011436;28;20199;-78
2022/07/03 21:09:10;;;;;;;1.63;1.10;;;20.70;90.50;;;;;;5009002;28;20562;-78
2022/07/03 21:11:38;;;;;;;1.02;0.88;;;20.70;90.50;;;;;;5033377;28;20199;-79
2022/07/03 21:14:08;;;;;;;2.45;1.00;;;20.70;90.60;;;;;;5010849;28;20204;-79
2022/07/03 21:16:36;;;;;;;2.28;1.23;;;20.60;90.40;;;;;;5016529;28;20203;-79
2022/07/03 21:19:06;;;;;;;3.10;1.25;;;20.60;90.40;;;;;;5021835;28;20218;-78
2022/07/03 21:21:34;;;;;;;2.05;0.95;;;20.50;90.30;;;;;;5011098;28;20207;-78
2022/07/03 21:24:02;;;;;;;1.50;0.70;;;20.60;90.50;;;;;;5031074;28;20196;-80
2022/07/03 21:26:32;;;;;;;1.75;0.88;;;20.70;90.30;;;;;;5015403;28;20713;-79
2022/07/03 21:29:00;;;;;;;1.48;0.80;;;20.70;90.40;;;;;;5011911;28;20219;-79
2022/07/03 21:31:29;;;;;;;1.35;0.93;;;20.70;90.60;;;;;;5015075;28;20206;-78
2022/07/03 21:33:56;;;;;;;2.28;1.00;;;20.70;90.10;;;;;;5020705;28;20191;-79
2022/07/03 21:36:24;;;;;;;1.17;0.70;;;20.70;90.40;;;;;;5015581;28;20203;-78
2022/07/03 21:38:52;;;;;;;1.70;0.90;;;20.50;90.30;;;;;;5012611;28;20245;-78
2022/07/03 21:41:20;;;;;;;0.65;0.65;;;20.50;90.20;;;;;;5022708;28;20258;-78
2022/07/03 21:43:49;;;;;;;1.50;1.02;;;20.70;90.80;;;;;;5019258;28;20203;-79
2022/07/03 21:46:16;;;;;;;1.17;0.80;;;20.40;90.10;;;;;;5020185;28;20207;-80
2022/07/03 21:48:44;;;;;;;0.82;0.70;;;20.30;90.50;;;;;;5030555;28;20696;-81
2022/07/03 21:51:11;;;;;;;1.02;0.85;;;20.30;90.30;;;;;;5029273;28;20673;-80
2022/07/03 21:53:39;;;;;;;2.15;0.90;;;20.20;90.30;;;;;;5017307;28;20192;-80
2022/07/03 21:56:06;;;;;;;0.93;0.90;;;20.20;90.60;;;;;;5039263;28;20206;-80
2022/07/03 21:58:34;;;;;;;1.45;1.10;;;20.20;90.70;;;;;;5019314;28;20224;-81
2022/07/03 22:01:03;;;;;;;1.38;0.98;;;20.30;90.50;;;;;;5022530;28;20242;-80
2022/07/03 22:03:30;;;;;;;1.88;0.70;;;20.20;90.80;;;;;;5025324;28;20297;-80
2022/07/03 22:05:58;;;;;;;0.90;0.80;;;20.20;90.80;;;;;;5021870;28;20195;-80
2022/07/03 22:08:25;;;;;;;1.77;0.70;;;20.20;90.60;;;;;;5024925;28;20211;-80
2022/07/03 22:10:53;;;;;;;3.20;1.08;;;20.10;90.80;;;;;;5026824;28;20191;-80
2022/07/03 22:13:21;;;;;;;1.90;0.88;;;20.10;90.70;;;;;;5018940;28;20207;-80
2022/07/03 22:15:49;;;;;;;1.45;0.73;;;20.00;90.60;;;;;;5019100;28;20678;-80
2022/07/03 22:18:18;;;;;;;1.40;0.70;;;19.90;91.10;;;;;;5017432;28;20234;-80
2022/07/03 22:20:46;;;;;;;1.88;0.90;;;20.00;91.10;;;;;;5027518;28;20212;-80
2022/07/03 22:23:14;;;;;;;1.55;0.98;;;20.00;91.10;;;;;;5019199;28;20203;-80
2022/07/03 22:25:42;;;;;;;1.20;0.60;;;20.10;91.00;;;;;;5021260;28;20204;-80
2022/07/03 22:28:09;;;;;;;1.27;0.85;;;20.00;90.90;;;;;;5020184;28;20212;-80
2022/07/03 22:30:38;;;;;;;1.77;0.90;;;20.00;91.00;;;;;;5041437;28;20198;-80
2022/07/03 22:33:06;;;;;;;1.60;0.90;;;19.80;91.10;;;;;;5020280;28;20210;-80
2022/07/03 22:35:35;;;;;;;2.00;0.93;;;19.90;91.20;;;;;;5030276;28;20207;-80
2022/07/03 22:38:02;;;;;;;1.42;0.90;;;19.90;91.20;;;;;;5020049;28;20219;-80
2022/07/03 22:40:30;;;;;;;1.10;1.00;;;19.90;91.30;;;;;;5021649;28;20211;-80
2022/07/03 22:42:58;;;;;;;2.25;1.13;;;19.90;91.40;;;;;;5021751;28;20203;-80
2022/07/03 22:45:25;;;;;;;0.82;0.70;;;19.80;91.50;;;;;;5025442;28;20199;-80
2022/07/03 22:47:53;;;;;;;1.35;0.90;;;19.80;91.80;;;;;;5031418;28;20234;-80
2022/07/03 22:50:20;;;;;;;1.75;0.88;;;19.70;92.00;;;;;;5032994;28;20202;-79
2022/07/03 22:52:49;;;;;;;2.17;0.80;;;19.70;92.00;;;;;;5024491;28;20207;-80
2022/07/03 22:55:17;;;;;;;2.22;1.08;;;19.60;92.40;;;;;;5023354;28;20203;-79
2022/07/03 22:57:44;;;;;;;4.63;1.20;;;19.60;92.30;;;;;;5022713;28;20917;-80
2022/07/03 23:00:13;;;;;;;1.90;0.82;;;19.50;92.50;;;;;;5020615;28;20669;-80
2022/07/03 23:02:41;;;;;;;1.98;0.90;;;19.50;92.70;;;;;;5025860;28;20202;-80
2022/07/03 23:05:09;;;;;;;1.40;0.90;;;19.30;93.40;;;;;;5016502;28;20200;-79
2022/07/03 23:07:36;;;;;;;2.22;1.15;;;19.10;93.60;;;;;;5025070;28;20590;-80
2022/07/03 23:10:06;;;;;;;1.95;1.00;;;19.10;93.70;;;;;;5016352;28;20230;-80
2022/07/03 23:12:34;;;;;;;2.47;0.98;;;19.30;93.70;;;;;;5021768;28;20211;-80
2022/07/03 23:15:01;;;;;;;1.35;1.20;;;19.30;93.30;;;;;;5024523;28;20665;-80
2022/07/03 23:17:29;;;;;;;2.28;1.50;;;19.10;93.60;;;;;;5016059;28;20740;-80
2022/07/03 23:19:56;;;;;;;1.42;1.02;;;19.00;93.90;;;;;;5025995;28;20226;-80
2022/07/03 23:22:24;;;;;;;2.08;1.23;;;19.00;94.20;;;;;;5019236;28;20225;-80
2022/07/03 23:24:51;;;;;;;2.22;1.00;;;18.90;94.30;;;;;;5022564;28;20816;-80
2022/07/03 23:27:21;;;;;;;2.30;1.25;;;19.00;94.60;;;;;;5021904;28;20216;-80
2022/07/03 23:29:48;;;;;;;2.05;0.90;;;19.00;94.50;;;;;;5019834;28;20203;-80
2022/07/03 23:32:17;;;;;;;1.00;0.90;;;19.00;94.50;;;;;;5024238;28;20686;-80
2022/07/03 23:34:45;;;;;;;1.50;1.10;;;18.80;94.70;;;;;;5019389;28;20207;-80
2022/07/03 23:37:12;;;;;;;2.63;1.15;;;18.60;95.50;;;;;;5018586;28;20235;-80
2022/07/03 23:39:40;;;;;;;2.47;0.80;;;18.60;95.90;;;;;;5018662;28;20203;-80
2022/07/03 23:42:08;;;;;;;1.42;0.90;;;18.60;95.60;;;;;;5014784;28;20222;-80
2022/07/03 23:44:42;;;;;;;3.88;1.13;;;18.40;96.10;;;;;;5023647;28;20215;-80
2022/07/03 23:47:09;;;;;;;1.48;1.10;;;18.60;95.90;;;;;;5016210;28;20211;-80
2022/07/03 23:52:22;;;;;;;1.85;1.20;;;18.50;96.50;;;;;;5016404;28;20200;-80
2022/07/03 23:54:50;;;;;;;1.20;1.00;;;18.40;96.70;;;;;;5026130;28;20211;-80
2022/07/03 23:57:17;;;;;;;2.25;0.90;;;18.30;97.50;;;;;;5020055;28;20684;-80
2022/07/03 23:59:48;;;;;;;1.90;1.30;;;18.20;98.20;;;;;;5034346;28;20693;-80
